createdAt,value
2023-02-17T00:01:14.217Z,76.10
2023-02-17T00:03:41.957Z,70.72
2023-02-17T00:06:11.148Z,70.47
2023-02-17T00:08:38.615Z,68.53
2023-02-17T00:11:06.825Z,66.10
2023-02-17T00:13:34.437Z,74.18
2023-02-17T00:16:10.079Z,71.28
2023-02-17T00:18:37.849Z,69.43
2023-02-17T00:21:31.759Z,67.00
2023-02-17T00:24:00.118Z,74.80
2023-02-17T00:26:27.637Z,71.47
2023-02-17T00:28:55.064Z,70.95
2023-02-17T00:31:23.696Z,70.28
2023-02-17T00:33:54.615Z,67.20
2023-02-17T00:36:22.191Z,72.50
2023-02-17T00:38:49.916Z,65.47
2023-02-17T00:41:18.130Z,71.22
2023-02-17T00:43:45.961Z,71.95
2023-02-17T00:46:14.139Z,66.45
2023-02-17T00:48:41.793Z,73.90
2023-02-17T00:51:09.982Z,67.85
2023-02-17T00:53:37.837Z,65.70
2023-02-17T00:56:08.185Z,67.68
2023-02-17T00:58:36.163Z,68.20
2023-02-17T01:01:04.212Z,68.70
2023-02-17T01:03:31.646Z,67.87
2023-02-17T01:05:59.243Z,69.28
2023-02-17T01:08:26.881Z,72.45
2023-02-17T01:10:54.328Z,80.38
2023-02-17T01:13:21.778Z,74.87
2023-02-17T01:15:51.649Z,77.43
2023-02-17T01:18:21.211Z,80.38
2023-02-17T01:20:49.931Z,80.53
2023-02-17T01:23:17.496Z,75.62
2023-02-17T01:25:46.511Z,79.78
2023-02-17T01:28:18.941Z,75.75
2023-02-17T01:30:48.054Z,72.05
2023-02-17T01:33:15.770Z,77.57
2023-02-17T01:35:43.334Z,72.05
2023-02-17T01:38:12.819Z,69.93
2023-02-17T01:40:47.930Z,73.53
2023-02-17T01:43:17.605Z,73.68
2023-02-17T01:45:47.414Z,68.82
2023-02-17T01:48:17.885Z,68.78
2023-02-17T01:50:55.667Z,75.90
2023-02-17T01:53:26.832Z,71.18
2023-02-17T01:55:55.125Z,68.20
2023-02-17T01:58:23.520Z,67.15
2023-02-17T02:00:52.878Z,66.80
2023-02-17T02:03:21.002Z,64.03
2023-02-17T02:05:48.398Z,61.08
2023-02-17T02:08:15.999Z,63.92
2023-02-17T02:10:43.726Z,68.07
2023-02-17T02:13:11.352Z,63.72
2023-02-17T02:15:49.197Z,61.90
2023-02-17T02:18:22.497Z,63.33
2023-02-17T02:21:17.582Z,60.75
2023-02-17T02:24:16.668Z,57.58
2023-02-17T02:27:02.002Z,54.22
2023-02-17T02:29:35.362Z,51.47
2023-02-17T02:32:43.744Z,54.53
2023-02-17T02:35:32.693Z,54.05
2023-02-17T02:38:06.923Z,54.95
2023-02-17T02:40:38.057Z,51.50
2023-02-17T02:43:05.999Z,49.13
2023-02-17T02:45:34.936Z,56.22
2023-02-17T02:48:03.017Z,53.80
2023-02-17T02:51:27.998Z,52.33
2023-02-17T02:54:42.248Z,53.80
2023-02-17T02:57:28.677Z,58.47
2023-02-17T03:00:17.277Z,52.47
2023-02-17T03:02:52.390Z,55.38
2023-02-17T03:05:39.450Z,57.90
2023-02-17T03:08:33.673Z,55.33
2023-02-17T03:11:01.639Z,52.78
2023-02-17T03:13:34.301Z,53.60
2023-02-17T03:16:01.845Z,57.62
2023-02-17T03:18:32.793Z,58.22
2023-02-17T03:21:06.991Z,61.40
2023-02-17T03:23:34.402Z,54.13
2023-02-17T03:26:02.139Z,54.65
2023-02-17T03:28:29.514Z,54.03
2023-02-17T03:30:57.921Z,56.25
2023-02-17T03:33:25.580Z,54.72
2023-02-17T03:35:52.950Z,58.15
2023-02-17T03:38:20.295Z,54.25
2023-02-17T03:40:47.932Z,57.30
2023-02-17T03:43:17.879Z,54.25
2023-02-17T03:45:45.611Z,57.20
2023-02-17T03:48:13.306Z,55.70
2023-02-17T03:50:40.705Z,51.92
2023-02-17T03:53:08.108Z,57.28
2023-02-17T03:55:35.748Z,51.67
2023-02-17T03:58:03.732Z,54.70
2023-02-17T04:00:31.345Z,56.33
2023-02-17T04:02:59.332Z,51.65
2023-02-17T04:05:26.808Z,60.53
2023-02-17T04:07:54.253Z,57.33
2023-02-17T04:10:21.877Z,59.97
2023-02-17T04:12:49.260Z,56.92
2023-02-17T04:15:16.813Z,61.60
2023-02-17T04:17:44.489Z,60.15
2023-02-17T04:20:12.195Z,56.47
2023-02-17T04:22:39.593Z,59.65
2023-02-17T04:25:07.363Z,60.67
2023-02-17T04:27:34.706Z,61.85
2023-02-17T04:30:02.260Z,65.60
2023-02-17T04:32:30.008Z,57.78
2023-02-17T04:34:57.343Z,58.72
2023-02-17T04:37:24.681Z,60.12
2023-02-17T04:39:52.298Z,56.42
2023-02-17T04:42:19.694Z,56.35
2023-02-17T04:44:47.066Z,56.50
2023-02-17T04:47:15.054Z,56.28
2023-02-17T04:49:42.522Z,60.67
2023-02-17T04:52:09.883Z,58.65
2023-02-17T04:54:37.766Z,55.95
2023-02-17T04:57:05.084Z,54.67
2023-02-17T04:59:32.457Z,55.33
2023-02-17T05:02:00.158Z,53.53
2023-02-17T05:04:27.678Z,52.13
2023-02-17T05:06:55.127Z,53.03
2023-02-17T05:09:22.776Z,48.53
2023-02-17T05:11:50.176Z,54.22
2023-02-17T05:14:17.604Z,55.75
2023-02-17T05:16:45.421Z,51.03
2023-02-17T05:19:12.884Z,52.85
2023-02-17T05:21:40.290Z,54.97
2023-02-17T05:24:08.134Z,50.78
2023-02-17T05:26:35.523Z,51.25
2023-02-17T05:29:03.150Z,49.40
2023-02-17T05:31:30.959Z,49.28
2023-02-17T05:33:58.603Z,53.00
2023-02-17T05:36:25.957Z,54.83
2023-02-17T05:38:53.647Z,52.33
2023-02-17T05:41:21.061Z,47.20
2023-02-17T05:43:48.831Z,57.90
2023-02-17T05:46:16.580Z,51.78
2023-02-17T05:48:44.290Z,51.22
2023-02-17T05:51:13.743Z,55.75
2023-02-17T05:53:41.396Z,55.92
2023-02-17T05:56:09.082Z,54.97
2023-02-17T05:58:36.642Z,54.75
2023-02-17T06:01:09.142Z,52.15
2023-02-17T06:03:36.980Z,52.38
2023-02-17T06:06:05.884Z,56.37
2023-02-17T06:08:34.168Z,51.53
2023-02-17T06:11:01.919Z,54.13
2023-02-17T06:13:29.297Z,51.97
2023-02-17T06:15:56.797Z,53.42
2023-02-17T06:18:24.613Z,53.38
2023-02-17T06:20:55.344Z,52.80
2023-02-17T06:23:23.798Z,54.08
2023-02-17T06:25:51.489Z,51.97
2023-02-17T06:28:19.254Z,60.53
2023-02-17T06:30:46.720Z,66.75
2023-02-17T06:33:14.386Z,58.42
2023-02-17T06:35:41.816Z,55.03
2023-02-17T06:38:09.320Z,53.95
2023-02-17T06:40:36.962Z,54.03
2023-02-17T06:43:06.592Z,52.95
2023-02-17T06:45:34.531Z,48.50
2023-02-17T06:48:02.360Z,51.20
2023-02-17T06:50:29.839Z,47.78
2023-02-17T06:52:57.207Z,46.97
2023-02-17T06:55:24.916Z,49.50
2023-02-17T06:57:52.314Z,47.88
2023-02-17T07:00:20.684Z,51.37
2023-02-17T07:02:48.567Z,51.92
2023-02-17T07:05:16.046Z,49.65
2023-02-17T07:07:43.449Z,48.42
2023-02-17T07:10:11.509Z,53.25
2023-02-17T07:12:38.963Z,53.67
2023-02-17T07:15:07.535Z,53.42
2023-02-17T07:17:35.976Z,47.90
2023-02-17T07:20:03.414Z,50.33
2023-02-17T07:22:30.861Z,51.33
2023-02-17T07:24:58.562Z,46.55
2023-02-17T07:27:26.068Z,50.03
2023-02-17T07:29:53.472Z,51.05
2023-02-17T07:32:21.188Z,49.80
2023-02-17T07:34:48.598Z,46.53
2023-02-17T07:37:16.088Z,48.35
2023-02-17T07:39:43.783Z,45.05
2023-02-17T07:42:11.593Z,43.03
2023-02-17T07:44:39.677Z,46.17
2023-02-17T07:47:07.451Z,51.17
2023-02-17T07:49:34.913Z,48.55
2023-02-17T07:52:04.931Z,49.45
2023-02-17T07:54:32.925Z,51.17
2023-02-17T07:57:00.594Z,63.00
2023-02-17T07:59:28.100Z,69.57
2023-02-17T08:01:55.787Z,73.45
2023-02-17T08:04:23.529Z,67.28
2023-02-17T08:06:50.989Z,54.20
2023-02-17T08:09:37.010Z,50.58
2023-02-17T08:12:23.386Z,50.65
2023-02-17T08:14:50.782Z,44.22
2023-02-17T08:17:18.447Z,46.95
2023-02-17T08:19:48.918Z,46.15
2023-02-17T08:22:18.507Z,46.97
2023-02-17T08:24:46.410Z,43.87
2023-02-17T08:27:15.081Z,43.15
2023-02-17T08:29:43.015Z,37.10
2023-02-17T08:32:11.143Z,37.45
2023-02-17T08:34:38.627Z,36.00
2023-02-17T08:37:07.055Z,33.53
2023-02-17T08:39:35.735Z,39.10
2023-02-17T08:42:05.781Z,32.13
2023-02-17T08:44:35.982Z,33.70
2023-02-17T08:47:05.162Z,35.95
2023-02-17T08:49:33.179Z,35.47
2023-02-17T08:52:00.966Z,33.58
2023-02-17T08:54:28.785Z,34.83
2023-02-17T08:56:56.532Z,35.45
2023-02-17T08:59:24.029Z,32.72
2023-02-17T09:01:51.866Z,34.58
2023-02-17T09:04:19.441Z,32.22
2023-02-17T09:06:49.539Z,27.37
2023-02-17T09:09:19.125Z,28.67
2023-02-17T09:11:46.643Z,27.15
2023-02-17T09:14:14.039Z,26.23
2023-02-17T09:16:41.864Z,35.40
2023-02-17T09:19:09.278Z,31.25
2023-02-17T09:21:37.016Z,31.73
2023-02-17T09:24:05.041Z,28.75
2023-02-17T09:26:34.985Z,26.33
2023-02-17T09:29:04.234Z,27.02
2023-02-17T09:31:32.267Z,25.70
2023-02-17T09:34:00.296Z,27.35
2023-02-17T09:36:30.937Z,31.02
2023-02-17T09:38:59.243Z,34.63
2023-02-17T09:41:34.533Z,27.95
2023-02-17T09:44:02.729Z,30.98
2023-02-17T09:46:49.742Z,31.00
2023-02-17T09:49:27.061Z,32.78
2023-02-17T09:52:07.951Z,30.48
2023-02-17T09:54:41.743Z,28.75
2023-02-17T09:57:13.253Z,30.00
2023-02-17T09:59:45.333Z,30.77
2023-02-17T10:02:19.639Z,29.35
2023-02-17T10:04:48.489Z,28.60
2023-02-17T10:07:27.850Z,28.12
2023-02-17T10:10:21.452Z,30.25
2023-02-17T10:12:51.768Z,28.73
2023-02-17T10:15:24.572Z,34.45
2023-02-17T10:20:41.705Z,31.15
2023-02-17T10:23:35.561Z,27.05
2023-02-17T10:26:03.382Z,26.25
2023-02-17T10:28:39.840Z,30.12
2023-02-17T10:31:15.747Z,30.50
2023-02-17T10:34:03.418Z,39.10
2023-02-17T10:36:38.125Z,32.15
2023-02-17T10:39:22.750Z,32.78
2023-02-17T10:41:51.782Z,33.85
2023-02-17T10:44:23.591Z,32.10
2023-02-17T10:46:53.257Z,37.03
2023-02-17T10:49:29.988Z,41.37
2023-02-17T10:52:13.715Z,42.45
2023-02-17T10:54:53.042Z,43.20
2023-02-17T10:57:22.086Z,41.22
2023-02-17T10:59:50.533Z,38.08
2023-02-17T11:02:23.246Z,41.00
2023-02-17T11:04:54.939Z,42.47
2023-02-17T11:07:32.768Z,37.05
2023-02-17T11:10:03.192Z,42.40
2023-02-17T11:12:40.392Z,41.78
2023-02-17T11:15:20.156Z,35.22
2023-02-17T11:17:48.103Z,33.67
2023-02-17T11:20:15.799Z,36.47
2023-02-17T11:22:59.214Z,36.20
2023-02-17T11:25:35.507Z,32.38
2023-02-17T11:28:05.980Z,29.73
2023-02-17T11:30:48.856Z,31.58
2023-02-17T11:33:22.626Z,30.62
2023-02-17T11:35:55.408Z,36.28
2023-02-17T11:38:26.437Z,42.97
2023-02-17T11:40:59.802Z,39.25
2023-02-17T11:43:29.650Z,39.67
2023-02-17T11:46:05.686Z,44.50
2023-02-17T11:49:03.990Z,42.62
2023-02-17T11:51:46.610Z,46.80
2023-02-17T11:54:41.607Z,42.13
2023-02-17T11:57:39.350Z,44.72
2023-02-17T12:00:22.593Z,49.75
2023-02-17T12:03:18.259Z,48.80
2023-02-17T12:05:59.058Z,59.22
2023-02-17T12:08:55.823Z,55.70
2023-02-17T12:11:41.184Z,50.38
2023-02-17T12:14:31.449Z,51.88
2023-02-17T12:17:40.480Z,55.05
2023-02-17T12:20:41.643Z,71.45
2023-02-17T12:23:30.740Z,57.38
2023-02-17T12:26:04.595Z,57.20
2023-02-17T12:28:50.509Z,53.58
2023-02-17T12:31:39.572Z,54.00
2023-02-17T12:34:17.954Z,55.45
2023-02-17T12:36:49.944Z,64.20
2023-02-17T12:39:19.571Z,54.15
2023-02-17T12:42:12.853Z,55.65
2023-02-17T12:44:49.889Z,57.05
2023-02-17T12:47:41.329Z,53.00
2023-02-17T12:50:21.504Z,56.67
2023-02-17T12:52:52.815Z,54.90
2023-02-17T12:55:32.605Z,57.05
2023-02-17T12:58:07.820Z,56.70
2023-02-17T13:00:45.079Z,51.33
2023-02-17T13:03:13.362Z,54.15
2023-02-17T13:05:42.511Z,57.15
2023-02-17T13:08:21.761Z,50.60
2023-02-17T13:11:04.419Z,58.42
2023-02-17T13:13:34.566Z,61.42
2023-02-17T13:16:11.583Z,55.72
2023-02-17T13:18:50.759Z,60.92
2023-02-17T13:21:28.860Z,57.83
2023-02-17T13:24:31.477Z,58.25
2023-02-17T13:27:12.032Z,56.00
2023-02-17T13:29:39.633Z,51.47
2023-02-17T13:32:11.973Z,58.03
2023-02-17T13:34:46.278Z,56.53
2023-02-17T13:37:32.484Z,55.53
2023-02-17T13:40:02.804Z,61.42
2023-02-17T13:42:39.429Z,59.22
2023-02-17T13:45:14.752Z,56.05
2023-02-17T13:47:43.208Z,58.53
2023-02-17T13:50:35.940Z,52.62
2023-02-17T13:53:22.245Z,58.00
2023-02-17T13:55:49.709Z,54.03
2023-02-17T13:58:22.824Z,61.10
2023-02-17T14:00:50.433Z,59.85
2023-02-17T14:03:30.015Z,43.95
2023-02-17T14:05:59.496Z,57.55
2023-02-17T14:08:36.224Z,58.53
2023-02-17T14:11:09.180Z,53.22
2023-02-17T14:13:38.243Z,57.25
2023-02-17T14:16:09.502Z,57.47
2023-02-17T14:18:44.653Z,56.33
2023-02-17T14:21:24.485Z,58.95
2023-02-17T14:23:54.214Z,56.58
2023-02-17T14:26:46.496Z,63.00
2023-02-17T14:29:15.760Z,59.13
2023-02-17T14:31:47.918Z,59.33
2023-02-17T14:34:27.743Z,56.83
2023-02-17T14:36:58.098Z,55.53
2023-02-17T14:39:25.921Z,52.10
2023-02-17T14:41:53.930Z,56.80
2023-02-17T14:44:21.597Z,56.47
2023-02-17T14:46:49.407Z,56.17
2023-02-17T14:49:16.839Z,58.92
2023-02-17T14:51:44.251Z,50.70
2023-02-17T14:54:16.722Z,52.78
2023-02-17T14:57:05.351Z,56.22
2023-02-17T14:59:33.103Z,51.28
2023-02-17T15:02:00.754Z,56.15
2023-02-17T15:04:28.255Z,53.63
2023-02-17T15:06:56.018Z,57.72
2023-02-17T15:09:28.551Z,53.22
2023-02-17T15:11:56.672Z,50.95
2023-02-17T15:14:24.104Z,56.17
2023-02-17T15:16:51.525Z,54.10
2023-02-17T15:19:19.265Z,52.45
2023-02-17T15:21:49.604Z,55.10
2023-02-17T15:24:23.247Z,52.90
2023-02-17T15:26:51.466Z,52.67
2023-02-17T15:29:22.309Z,52.83
2023-02-17T15:31:51.162Z,49.28
2023-02-17T15:34:22.789Z,51.80
2023-02-17T15:36:50.221Z,52.45
2023-02-17T15:39:19.186Z,56.13
2023-02-17T15:41:47.910Z,55.40
2023-02-17T15:44:18.136Z,55.72
2023-02-17T15:46:46.243Z,63.13
2023-02-17T15:49:14.133Z,56.33
2023-02-17T15:51:41.631Z,58.70
2023-02-17T15:54:09.202Z,63.95
2023-02-17T15:56:49.202Z,68.03
2023-02-17T15:59:24.862Z,62.92
2023-02-17T16:01:56.051Z,64.18
2023-02-17T16:04:23.808Z,65.57
2023-02-17T16:06:51.211Z,65.30
2023-02-17T16:09:20.606Z,64.87
2023-02-17T16:11:53.226Z,66.43
2023-02-17T16:14:28.449Z,68.85
2023-02-17T16:16:56.668Z,66.05
2023-02-17T16:19:24.770Z,67.72
2023-02-17T16:21:53.175Z,64.45
2023-02-17T16:24:20.839Z,66.07
2023-02-17T16:26:48.497Z,69.78
2023-02-17T16:29:21.049Z,70.20
2023-02-17T16:31:49.409Z,72.55
2023-02-17T16:34:22.174Z,80.85
2023-02-17T16:36:52.040Z,84.95
2023-02-17T16:39:21.022Z,90.05
2023-02-17T16:41:49.118Z,82.00
2023-02-17T16:44:19.139Z,76.43
2023-02-17T16:46:49.024Z,74.22
2023-02-17T16:49:20.231Z,73.80
2023-02-17T16:51:47.637Z,76.93
2023-02-17T16:54:16.437Z,72.30
2023-02-17T16:56:47.238Z,71.28
2023-02-17T16:59:16.739Z,75.82
2023-02-17T17:01:45.755Z,74.82
2023-02-17T17:04:17.396Z,82.22
2023-02-17T17:06:51.169Z,84.50
2023-02-17T17:09:21.821Z,77.03
2023-02-17T17:11:50.336Z,85.07
2023-02-17T17:14:20.579Z,89.57
2023-02-17T17:16:57.924Z,84.80
2023-02-17T17:19:25.471Z,85.82
2023-02-17T17:21:53.193Z,83.37
2023-02-17T17:24:20.634Z,84.72
2023-02-17T17:26:50.144Z,91.97
2023-02-17T17:29:19.070Z,89.57
2023-02-17T17:31:46.763Z,102.43
2023-02-17T17:34:14.341Z,109.82
2023-02-17T17:36:44.501Z,116.60
2023-02-17T17:39:17.767Z,108.68
2023-02-17T17:41:46.871Z,105.03
2023-02-17T17:44:14.951Z,99.10
2023-02-17T17:46:42.692Z,97.20
2023-02-17T17:49:13.257Z,93.60
2023-02-17T17:51:41.026Z,100.20
2023-02-17T17:54:09.310Z,102.90
2023-02-17T17:56:42.906Z,106.50
2023-02-17T17:59:11.470Z,111.32
2023-02-17T18:01:39.828Z,102.57
2023-02-17T18:04:09.336Z,110.65
2023-02-17T18:06:43.688Z,101.87
2023-02-17T18:09:30.322Z,102.03
2023-02-17T18:12:01.810Z,102.97
2023-02-17T18:14:29.704Z,92.43
2023-02-17T18:16:58.069Z,99.20
2023-02-17T18:19:26.398Z,103.57
2023-02-17T18:21:54.590Z,103.30
2023-02-17T18:24:22.028Z,107.43
2023-02-17T18:26:52.028Z,109.72
2023-02-17T18:29:20.672Z,102.30
2023-02-17T18:31:49.025Z,110.22
2023-02-17T18:34:16.910Z,104.05
2023-02-17T18:36:44.740Z,113.12
2023-02-17T18:39:12.671Z,108.05
2023-02-17T18:41:40.703Z,116.53
2023-02-17T18:44:13.614Z,111.47
2023-02-17T18:46:41.200Z,110.32
2023-02-17T18:49:09.003Z,114.00
2023-02-17T18:51:36.460Z,112.57
2023-02-17T18:54:03.995Z,101.50
2023-02-17T18:56:33.242Z,97.68
2023-02-17T18:59:01.518Z,96.82
2023-02-17T19:01:32.166Z,100.87
2023-02-17T19:03:59.869Z,95.38
2023-02-17T19:06:29.370Z,101.85
2023-02-17T19:08:57.217Z,94.65
2023-02-17T19:11:25.493Z,89.25
2023-02-17T19:13:53.218Z,91.55
2023-02-17T19:16:25.870Z,91.07
2023-02-17T19:18:54.324Z,94.87
2023-02-17T19:21:22.269Z,85.72
2023-02-17T19:23:51.204Z,89.55
2023-02-17T19:26:19.049Z,92.85
2023-02-17T19:28:46.944Z,85.72
2023-02-17T19:31:20.869Z,84.70
2023-02-17T19:33:48.660Z,79.85
2023-02-17T19:36:21.641Z,79.53
2023-02-17T19:38:50.239Z,77.32
2023-02-17T19:41:19.637Z,63.60
2023-02-17T19:43:47.171Z,54.20
2023-02-17T19:46:18.247Z,52.72
2023-02-17T19:48:45.920Z,47.17
2023-02-17T19:51:16.562Z,39.00
2023-02-17T19:53:44.310Z,33.00
2023-02-17T19:56:18.043Z,36.53
2023-02-17T19:58:46.314Z,31.83
2023-02-17T20:01:19.559Z,33.40
2023-02-17T20:03:47.233Z,35.22
2023-02-17T20:06:18.116Z,39.40
2023-02-17T20:08:46.013Z,34.85
2023-02-17T20:11:14.676Z,32.35
2023-02-17T20:13:46.186Z,38.05
2023-02-17T20:16:15.990Z,37.35
2023-02-17T20:18:48.500Z,40.12
2023-02-17T20:21:19.568Z,35.67
2023-02-17T20:23:46.927Z,36.80
2023-02-17T20:26:20.101Z,37.58
2023-02-17T20:28:48.376Z,33.65
2023-02-17T20:31:16.238Z,41.35
2023-02-17T20:33:44.805Z,38.47
2023-02-17T20:36:12.581Z,33.28
2023-02-17T20:38:40.629Z,30.33
2023-02-17T20:41:10.032Z,32.40
2023-02-17T20:43:38.356Z,32.53
2023-02-17T20:46:06.144Z,32.55
2023-02-17T20:48:33.946Z,34.60
2023-02-17T20:51:03.865Z,30.73
2023-02-17T20:53:31.350Z,31.37
2023-02-17T20:55:58.756Z,33.60
2023-02-17T20:58:26.469Z,33.08
2023-02-17T21:00:53.899Z,34.65
2023-02-17T21:03:21.343Z,32.55
2023-02-17T21:05:49.244Z,35.95
2023-02-17T21:08:16.660Z,34.75
2023-02-17T21:10:44.135Z,27.98
2023-02-17T21:13:11.885Z,32.30
2023-02-17T21:15:39.322Z,27.95
2023-02-17T21:18:08.738Z,33.72
2023-02-17T21:20:36.662Z,36.28
2023-02-17T21:23:04.233Z,42.15
2023-02-17T21:25:31.603Z,37.95
2023-02-17T21:27:59.510Z,38.05
2023-02-17T21:30:29.248Z,35.10
2023-02-17T21:32:56.900Z,34.97
2023-02-17T21:35:24.528Z,35.55
2023-02-17T21:37:52.001Z,35.38
2023-02-17T21:40:19.716Z,31.95
2023-02-17T21:43:05.925Z,34.22
2023-02-17T21:45:38.261Z,33.55
2023-02-17T21:48:07.374Z,35.70
2023-02-17T21:50:34.745Z,32.15
2023-02-17T21:53:02.184Z,34.67
2023-02-17T21:55:29.890Z,38.80
2023-02-17T21:57:57.306Z,39.72
2023-02-17T22:00:24.862Z,43.40
2023-02-17T22:02:52.579Z,42.53
2023-02-17T22:05:20.004Z,44.53
2023-02-17T22:07:51.048Z,45.58
2023-02-17T22:10:18.822Z,46.40
2023-02-17T22:12:46.249Z,46.35
2023-02-17T22:15:16.069Z,48.78
2023-02-17T22:17:44.024Z,45.90
2023-02-17T22:20:12.038Z,49.58
2023-02-17T22:22:39.425Z,48.42
2023-02-17T22:25:07.152Z,49.85
2023-02-17T22:27:34.604Z,48.55
2023-02-17T22:30:02.397Z,51.88
2023-02-17T22:32:30.182Z,54.85
2023-02-17T22:34:57.593Z,59.33
2023-02-17T22:37:24.984Z,72.75
2023-02-17T22:39:53.946Z,61.42
2023-02-17T22:42:22.692Z,50.17
2023-02-17T22:44:50.228Z,38.53
2023-02-17T22:47:18.085Z,35.60
2023-02-17T22:49:45.479Z,37.58
2023-02-17T22:52:13.003Z,41.83
2023-02-17T22:54:41.010Z,29.55
2023-02-17T22:57:08.382Z,25.05
2023-02-17T22:59:35.749Z,22.73
2023-02-17T23:02:03.428Z,21.75
2023-02-17T23:04:30.979Z,22.95
2023-02-17T23:06:59.090Z,24.50
2023-02-17T23:09:26.730Z,23.87
2023-02-17T23:11:54.537Z,20.80
2023-02-17T23:14:26.915Z,18.40
2023-02-17T23:19:23.663Z,20.40
2023-02-17T23:21:53.578Z,17.00
2023-02-17T23:24:22.312Z,19.00
2023-02-17T23:26:50.420Z,19.90
2023-02-17T23:29:18.614Z,13.25
2023-02-17T23:31:46.704Z,17.15
2023-02-17T23:34:15.818Z,14.90
2023-02-17T23:36:44.162Z,14.63
2023-02-17T23:39:12.870Z,13.20
2023-02-17T23:41:40.358Z,14.35
2023-02-17T23:44:10.052Z,11.43
2023-02-17T23:46:38.168Z,13.55
2023-02-17T23:49:06.030Z,13.25
2023-02-17T23:51:33.431Z,12.65
2023-02-17T23:54:01.216Z,14.98
2023-02-17T23:56:31.447Z,14.65
2023-02-17T23:58:59.206Z,10.10
